• Join FlightAware (Why Join?)
  • Login
  • US Flag 
07:21PM EDT


 

Airport Tracker/Info


-or-


 

Live Flight TrackerFlight Track Log ✈ N867DS ✈ 28-Jan-2014 ✈ KAPF - F45

Flight Track Log - Related Links

Times and Time Zones

All times are in EST time to prevent confusion due to time zone crossing. See the N867DS flight status page for this flight to view local times or setup timezone preferences in your user account.

Time Position Orientation Groundspeed Altitude Reporting Facility
EST Latitude Longitude Course Direction KTS MPH feet Rate Location/Type
08:26AM 26.3184 -81.5770 45° Northeast  Level FlightAware Approximate
08:27AM 26.3521 -81.5389 45° Northeast  Level FlightAware Approximate
08:28AM 26.3857 -81.5008 45° Northeast  Level FlightAware Approximate
08:28AM 26.3561 -81.4147 39° Northeast 156 180 4,900  Level Miami Center
08:29AM 26.4193 -81.4627 45° Northeast  Level FlightAware Approximate
08:29AM 26.3739 -81.3736 64° Northeast 143 165 5,000  Level Miami Center
08:30AM 26.4529 -81.4245 45° Northeast  Level FlightAware Approximate
08:30AM 26.3919 -81.3350 62° Northeast 143 165 5,100  Level Miami Center
08:31AM 26.4864 -81.3864 45° Northeast  Level FlightAware Approximate
08:31AM 26.4078 -81.2936 67° East 143 165 5,100  Level Miami Center
08:32AM 26.4258 -81.2528 64° Northeast 138 159 5,000 -120 Descending Miami Center
08:33AM 26.4458 -81.2117 61° Northeast 138 159 4,900 -60 Descending Miami Center
08:34AM 26.4594 -81.1728 69° East 138 159 4,900  Level Miami Center
08:35AM 26.4753 -81.1317 67° East 138 159 4,900  Level Miami Center
08:36AM 26.4911 -81.0903 67° East 138 159 4,900  Level Miami Center
08:37AM 26.5069 -81.0469 68° East 138 159 5,000  Climbing Miami Center
08:38AM 26.5247 -81.0081 63° Northeast 146 168 5,000 -60 Level Miami Center
08:39AM 26.5406 -80.9667 67° East 146 168 4,900  Descending Miami Center
08:40AM 26.5561 -80.9347 61° Northeast 136 157 5,000  Climbing Miami Center
08:41AM 26.5803 -80.8914 58° Northeast 136 157 4,900 -60 Descending Miami Center
08:42AM 26.6000 -80.8528 60° Northeast 141 162 4,900  Level Miami Center
08:43AM 26.6117 -80.8089 73° East 136 157 4,900  Level Miami Center
08:44AM 26.6253 -80.7678 70° East 136 157 5,000  Climbing Miami Center
08:45AM 26.6369 -80.7261 73° East 131 151 5,000 -240 Level Miami Center
08:46AM 26.6506 -80.6872 69° East 136 157 4,600 -600 Descending Miami Center
08:47AM 26.6642 -80.6458 70° East 136 157 3,800 -720 Descending Miami Center
08:48AM 26.6858 -80.6092 57° Northeast 136 157 3,200 -480 Descending Miami Center
08:49AM 26.7097 -80.5797 48° Northeast 136 157 2,900 -60 Descending Miami Center
08:50AM 26.7314 -80.5503 51° Northeast 130 150 3,100 -60 Climbing Miami Center
08:51AM 26.7550 -80.5183 50° Northeast 131 151 2,800 -300 Descending Miami Center
08:53AM 26.7684 -80.4669 74° East  Level FlightAware Approximate
09:00AM 26.8333 -80.2167 66° East  Level FlightAware Approximate
09:01AM 26.8459 -80.2223 66° East  Level Estimated
09:02AM 26.8459 -80.2223 66° East  Level Estimated
09:03AM 26.8459 -80.2223 66° East  Level Estimated
09:04AM 26.8459 -80.2223 66° East  Level Estimated
09:05AM 26.8459 -80.2223 66° East  Level Estimated
09:06AM 26.8459 -80.2223 66° East  Level Estimated
09:07AM 26.8459 -80.2223 66° East  Level Estimated
09:08AM 26.8459 -80.2223 66° East  Level Estimated
09:09AM 26.8459 -80.2223 66° East  Level Estimated
09:10AM 26.8459 -80.2223 66° East  Level Estimated
09:11AM 26.8459 -80.2223 66° East  Level Estimated
09:12AM 26.8459 -80.2223 66° East  Level Estimated
09:13AM 26.8459 -80.2223 66° East  Level Estimated
09:14AM 26.8459 -80.2223 66° East  Level Estimated
09:15AM 26.8459 -80.2223 66° East  Level Estimated
09:16AM 26.8459 -80.2223 66° East  Level Estimated
09:17AM 26.8459 -80.2223 66° East  Level Estimated
09:18AM 26.8459 -80.2223 66° East  Level Estimated
09:19AM 26.8459 -80.2223 66° East  Level Estimated
09:20AM 26.8459 -80.2223 66° East  Level Estimated